sensor_id;sensor_type;location;lat;lon;timestamp;P1;durP1;ratioP1;P2;durP2;ratioP2
66371;SDS011;53168;51.146;17.120;2023-07-02T00:02:25;11.44;;;11.44;;
66371;SDS011;53168;51.146;17.120;2023-07-02T00:04:55;10.53;;;10.53;;
66371;SDS011;53168;51.146;17.120;2023-07-02T00:07:24;11.38;;;11.38;;
66371;SDS011;53168;51.146;17.120;2023-07-02T00:09:54;11.58;;;11.58;;
66371;SDS011;53168;51.146;17.120;2023-07-02T00:12:24;11.73;;;11.73;;
66371;SDS011;53168;51.146;17.120;2023-07-02T00:14:53;10.40;;;10.39;;
66371;SDS011;53168;51.146;17.120;2023-07-02T00:17:23;10.12;;;10.12;;
66371;SDS011;53168;51.146;17.120;2023-07-02T00:19:53;8.64;;;8.64;;
66371;SDS011;53168;51.146;17.120;2023-07-02T00:22:23;9.69;;;9.69;;
66371;SDS011;53168;51.146;17.120;2023-07-02T00:24:53;10.21;;;10.21;;
66371;SDS011;53168;51.146;17.120;2023-07-02T00:27:23;10.42;;;10.42;;
66371;SDS011;53168;51.146;17.120;2023-07-02T00:29:52;8.69;;;8.69;;
66371;SDS011;53168;51.146;17.120;2023-07-02T00:32:22;8.62;;;8.62;;
66371;SDS011;53168;51.146;17.120;2023-07-02T02:09:36;2.25;;;2.25;;
66371;SDS011;53168;51.146;17.120;2023-07-02T02:17:00;2.39;;;2.39;;
66371;SDS011;53168;51.146;17.120;2023-07-02T02:44:35;2.47;;;2.47;;
66371;SDS011;53168;51.146;17.120;2023-07-02T02:50:54;2.26;;;2.26;;
66371;SDS011;53168;51.146;17.120;2023-07-02T02:53:25;2.42;;;2.42;;
66371;SDS011;53168;51.146;17.120;2023-07-02T02:55:54;2.20;;;2.20;;
66371;SDS011;53168;51.146;17.120;2023-07-02T02:58:24;2.53;;;2.53;;
66371;SDS011;53168;51.146;17.120;2023-07-02T03:00:57;2.04;;;2.04;;
66371;SDS011;53168;51.146;17.120;2023-07-02T03:06:12;1.88;;;1.88;;
66371;SDS011;53168;51.146;17.120;2023-07-02T03:12:06;1.77;;;1.77;;
66371;SDS011;53168;51.146;17.120;2023-07-02T03:14:37;1.73;;;1.73;;
66371;SDS011;53168;51.146;17.120;2023-07-02T03:17:07;1.87;;;1.87;;
66371;SDS011;53168;51.146;17.120;2023-07-02T03:19:36;1.82;;;1.82;;
66371;SDS011;53168;51.146;17.120;2023-07-02T03:22:06;1.65;;;1.65;;
66371;SDS011;53168;51.146;17.120;2023-07-02T03:24:40;1.58;;;1.58;;
66371;SDS011;53168;51.146;17.120;2023-07-02T03:27:15;1.70;;;1.70;;
66371;SDS011;53168;51.146;17.120;2023-07-02T03:29:46;1.49;;;1.49;;
66371;SDS011;53168;51.146;17.120;2023-07-02T03:32:16;1.40;;;1.40;;
66371;SDS011;53168;51.146;17.120;2023-07-02T03:34:47;1.60;;;1.60;;
66371;SDS011;53168;51.146;17.120;2023-07-02T03:37:19;1.60;;;1.60;;
66371;SDS011;53168;51.146;17.120;2023-07-02T03:39:52;1.74;;;1.74;;
66371;SDS011;53168;51.146;17.120;2023-07-02T03:42:22;1.59;;;1.59;;
66371;SDS011;53168;51.146;17.120;2023-07-02T03:44:52;1.64;;;1.64;;
66371;SDS011;53168;51.146;17.120;2023-07-02T03:47:22;1.62;;;1.62;;
66371;SDS011;53168;51.146;17.120;2023-07-02T03:49:51;1.54;;;1.54;;
66371;SDS011;53168;51.146;17.120;2023-07-02T03:52:21;1.42;;;1.42;;
66371;SDS011;53168;51.146;17.120;2023-07-02T03:59:07;1.72;;;1.72;;
66371;SDS011;53168;51.146;17.120;2023-07-02T04:02:01;1.62;;;1.62;;
66371;SDS011;53168;51.146;17.120;2023-07-02T04:05:14;1.54;;;1.54;;
66371;SDS011;53168;51.146;17.120;2023-07-02T04:08:26;1.90;;;1.90;;
66371;SDS011;53168;51.146;17.120;2023-07-02T04:15:28;1.79;;;1.79;;
66371;SDS011;53168;51.146;17.120;2023-07-02T04:17:59;1.89;;;1.89;;
66371;SDS011;53168;51.146;17.120;2023-07-02T04:20:48;1.90;;;1.90;;
66371;SDS011;53168;51.146;17.120;2023-07-02T04:23:18;1.76;;;1.76;;
66371;SDS011;53168;51.146;17.120;2023-07-02T04:25:48;1.84;;;1.84;;
66371;SDS011;53168;51.146;17.120;2023-07-02T04:28:42;1.99;;;1.99;;
66371;SDS011;53168;51.146;17.120;2023-07-02T04:31:17;1.80;;;1.80;;
66371;SDS011;53168;51.146;17.120;2023-07-02T04:33:47;1.91;;;1.91;;
66371;SDS011;53168;51.146;17.120;2023-07-02T04:36:17;1.84;;;1.84;;
66371;SDS011;53168;51.146;17.120;2023-07-02T04:38:48;2.07;;;2.07;;
66371;SDS011;53168;51.146;17.120;2023-07-02T04:41:18;2.15;;;2.15;;
66371;SDS011;53168;51.146;17.120;2023-07-02T04:43:48;2.45;;;2.45;;
66371;SDS011;53168;51.146;17.120;2023-07-02T04:46:18;2.07;;;2.07;;
66371;SDS011;53168;51.146;17.120;2023-07-02T04:48:48;2.34;;;2.34;;
66371;SDS011;53168;51.146;17.120;2023-07-02T04:51:19;2.16;;;2.16;;
66371;SDS011;53168;51.146;17.120;2023-07-02T04:53:50;2.09;;;2.09;;
66371;SDS011;53168;51.146;17.120;2023-07-02T04:56:19;2.03;;;2.03;;
66371;SDS011;53168;51.146;17.120;2023-07-02T05:02:12;2.21;;;2.21;;
66371;SDS011;53168;51.146;17.120;2023-07-02T05:19:22;2.24;;;2.24;;
66371;SDS011;53168;51.146;17.120;2023-07-02T05:21:52;2.11;;;2.11;;
66371;SDS011;53168;51.146;17.120;2023-07-02T05:24:22;2.22;;;2.22;;
66371;SDS011;53168;51.146;17.120;2023-07-02T05:26:52;2.43;;;2.43;;
66371;SDS011;53168;51.146;17.120;2023-07-02T05:29:21;2.37;;;2.37;;
66371;SDS011;53168;51.146;17.120;2023-07-02T05:31:52;2.41;;;2.41;;
66371;SDS011;53168;51.146;17.120;2023-07-02T05:34:21;2.40;;;2.40;;
66371;SDS011;53168;51.146;17.120;2023-07-02T05:36:51;2.61;;;2.61;;
66371;SDS011;53168;51.146;17.120;2023-07-02T05:39:21;2.71;;;2.71;;
66371;SDS011;53168;51.146;17.120;2023-07-02T05:41:50;2.26;;;2.26;;
66371;SDS011;53168;51.146;17.120;2023-07-02T05:44:20;2.43;;;2.43;;
66371;SDS011;53168;51.146;17.120;2023-07-02T05:46:49;2.51;;;2.51;;
66371;SDS011;53168;51.146;17.120;2023-07-02T05:49:19;2.52;;;2.52;;
66371;SDS011;53168;51.146;17.120;2023-07-02T05:51:49;2.39;;;2.39;;
66371;SDS011;53168;51.146;17.120;2023-07-02T05:54:19;2.27;;;2.27;;
66371;SDS011;53168;51.146;17.120;2023-07-02T05:56:50;2.77;;;2.77;;
66371;SDS011;53168;51.146;17.120;2023-07-02T05:59:19;2.31;;;2.31;;
66371;SDS011;53168;51.146;17.120;2023-07-02T06:01:49;2.52;;;2.52;;
66371;SDS011;53168;51.146;17.120;2023-07-02T06:04:18;2.57;;;2.57;;
66371;SDS011;53168;51.146;17.120;2023-07-02T06:06:48;2.69;;;2.69;;
66371;SDS011;53168;51.146;17.120;2023-07-02T06:09:18;2.66;;;2.66;;
66371;SDS011;53168;51.146;17.120;2023-07-02T06:12:03;2.63;;;2.63;;
66371;SDS011;53168;51.146;17.120;2023-07-02T06:14:34;2.31;;;2.31;;
66371;SDS011;53168;51.146;17.120;2023-07-02T06:17:04;2.52;;;2.52;;
66371;SDS011;53168;51.146;17.120;2023-07-02T06:19:36;4.04;;;4.04;;
66371;SDS011;53168;51.146;17.120;2023-07-02T06:22:08;2.73;;;2.73;;
66371;SDS011;53168;51.146;17.120;2023-07-02T06:24:38;2.72;;;2.72;;
66371;SDS011;53168;51.146;17.120;2023-07-02T06:27:49;2.83;;;2.83;;
66371;SDS011;53168;51.146;17.120;2023-07-02T06:33:41;2.66;;;2.66;;
66371;SDS011;53168;51.146;17.120;2023-07-02T06:36:14;3.03;;;3.03;;
66371;SDS011;53168;51.146;17.120;2023-07-02T06:38:52;3.04;;;3.04;;
66371;SDS011;53168;51.146;17.120;2023-07-02T06:41:27;2.76;;;2.76;;
66371;SDS011;53168;51.146;17.120;2023-07-02T06:50:05;2.86;;;2.86;;
66371;SDS011;53168;51.146;17.120;2023-07-02T06:53:13;2.62;;;2.62;;
66371;SDS011;53168;51.146;17.120;2023-07-02T07:03:43;2.19;;;2.19;;
66371;SDS011;53168;51.146;17.120;2023-07-02T07:13:39;2.27;;;2.27;;
66371;SDS011;53168;51.146;17.120;2023-07-02T07:16:31;2.41;;;2.41;;
66371;SDS011;53168;51.146;17.120;2023-07-02T07:41:24;2.41;;;2.41;;
66371;SDS011;53168;51.146;17.120;2023-07-02T07:44:03;2.49;;;2.49;;
66371;SDS011;53168;51.146;17.120;2023-07-02T07:46:48;2.42;;;2.42;;
66371;SDS011;53168;51.146;17.120;2023-07-02T07:50:05;2.84;;;2.84;;
66371;SDS011;53168;51.146;17.120;2023-07-02T07:52:54;4.04;;;4.04;;
66371;SDS011;53168;51.146;17.120;2023-07-02T07:56:14;3.96;;;3.96;;
66371;SDS011;53168;51.146;17.120;2023-07-02T08:02:06;3.20;;;3.20;;
66371;SDS011;53168;51.146;17.120;2023-07-02T08:04:37;3.52;;;3.52;;
66371;SDS011;53168;51.146;17.120;2023-07-02T08:07:08;3.25;;;3.25;;
66371;SDS011;53168;51.146;17.120;2023-07-02T08:10:15;3.35;;;3.35;;
66371;SDS011;53168;51.146;17.120;2023-07-02T08:12:56;3.59;;;3.59;;
66371;SDS011;53168;51.146;17.120;2023-07-02T08:19:24;3.19;;;3.19;;
66371;SDS011;53168;51.146;17.120;2023-07-02T08:21:55;3.25;;;3.25;;
66371;SDS011;53168;51.146;17.120;2023-07-02T08:28:22;3.11;;;3.11;;
66371;SDS011;53168;51.146;17.120;2023-07-02T08:31:04;3.23;;;3.23;;
66371;SDS011;53168;51.146;17.120;2023-07-02T08:33:51;3.19;;;3.19;;
66371;SDS011;53168;51.146;17.120;2023-07-02T08:49:23;3.63;;;3.63;;
66371;SDS011;53168;51.146;17.120;2023-07-02T08:51:59;3.66;;;3.66;;
66371;SDS011;53168;51.146;17.120;2023-07-02T08:54:42;3.68;;;3.68;;
66371;SDS011;53168;51.146;17.120;2023-07-02T10:23:45;3.34;;;3.34;;
66371;SDS011;53168;51.146;17.120;2023-07-02T10:26:16;3.23;;;3.23;;
66371;SDS011;53168;51.146;17.120;2023-07-02T10:28:57;3.29;;;3.29;;
66371;SDS011;53168;51.146;17.120;2023-07-02T10:31:28;3.17;;;3.17;;
66371;SDS011;53168;51.146;17.120;2023-07-02T10:33:58;2.95;;;2.95;;
66371;SDS011;53168;51.146;17.120;2023-07-02T10:36:28;3.24;;;3.24;;
66371;SDS011;53168;51.146;17.120;2023-07-02T10:39:01;3.23;;;3.23;;
66371;SDS011;53168;51.146;17.120;2023-07-02T10:41:32;3.00;;;3.00;;
66371;SDS011;53168;51.146;17.120;2023-07-02T10:44:06;3.33;;;3.33;;
66371;SDS011;53168;51.146;17.120;2023-07-02T10:46:43;3.06;;;3.06;;
66371;SDS011;53168;51.146;17.120;2023-07-02T10:49:14;3.04;;;3.04;;
66371;SDS011;53168;51.146;17.120;2023-07-02T10:51:56;2.82;;;2.82;;
66371;SDS011;53168;51.146;17.120;2023-07-02T10:54:38;2.73;;;2.73;;
66371;SDS011;53168;51.146;17.120;2023-07-02T10:57:10;3.01;;;3.01;;
66371;SDS011;53168;51.146;17.120;2023-07-02T10:59:50;2.91;;;2.91;;
66371;SDS011;53168;51.146;17.120;2023-07-02T11:02:20;2.87;;;2.87;;
66371;SDS011;53168;51.146;17.120;2023-07-02T11:04:49;3.06;;;3.06;;
66371;SDS011;53168;51.146;17.120;2023-07-02T11:07:23;3.05;;;3.05;;
66371;SDS011;53168;51.146;17.120;2023-07-02T11:09:53;2.66;;;2.66;;
66371;SDS011;53168;51.146;17.120;2023-07-02T11:12:29;3.03;;;3.03;;
66371;SDS011;53168;51.146;17.120;2023-07-02T11:15:07;2.63;;;2.63;;
66371;SDS011;53168;51.146;17.120;2023-07-02T11:20:38;2.62;;;2.62;;
66371;SDS011;53168;51.146;17.120;2023-07-02T11:23:18;2.91;;;2.91;;
66371;SDS011;53168;51.146;17.120;2023-07-02T11:25:57;2.73;;;2.73;;
66371;SDS011;53168;51.146;17.120;2023-07-02T11:28:32;2.88;;;2.88;;
66371;SDS011;53168;51.146;17.120;2023-07-02T11:31:05;2.79;;;2.79;;
66371;SDS011;53168;51.146;17.120;2023-07-02T11:33:36;2.99;;;2.99;;
66371;SDS011;53168;51.146;17.120;2023-07-02T11:36:18;3.11;;;3.11;;
66371;SDS011;53168;51.146;17.120;2023-07-02T11:38:51;2.83;;;2.83;;
66371;SDS011;53168;51.146;17.120;2023-07-02T11:41:24;2.70;;;2.70;;
66371;SDS011;53168;51.146;17.120;2023-07-02T11:44:04;2.63;;;2.63;;
66371;SDS011;53168;51.146;17.120;2023-07-02T11:46:43;2.71;;;2.71;;
66371;SDS011;53168;51.146;17.120;2023-07-02T11:49:16;2.73;;;2.73;;
66371;SDS011;53168;51.146;17.120;2023-07-02T11:51:47;2.50;;;2.50;;
66371;SDS011;53168;51.146;17.120;2023-07-02T11:57:40;2.64;;;2.64;;
66371;SDS011;53168;51.146;17.120;2023-07-02T12:00:23;2.46;;;2.46;;
66371;SDS011;53168;51.146;17.120;2023-07-02T12:02:54;2.54;;;2.54;;
66371;SDS011;53168;51.146;17.120;2023-07-02T12:05:27;2.54;;;2.54;;
66371;SDS011;53168;51.146;17.120;2023-07-02T12:08:16;2.61;;;2.61;;
66371;SDS011;53168;51.146;17.120;2023-07-02T12:10:48;2.70;;;2.70;;
66371;SDS011;53168;51.146;17.120;2023-07-02T12:13:22;2.85;;;2.85;;
66371;SDS011;53168;51.146;17.120;2023-07-02T12:15:51;2.70;;;2.70;;
66371;SDS011;53168;51.146;17.120;2023-07-02T12:18:24;2.70;;;2.70;;
66371;SDS011;53168;51.146;17.120;2023-07-02T12:20:53;2.75;;;2.75;;
66371;SDS011;53168;51.146;17.120;2023-07-02T12:23:39;2.75;;;2.75;;
66371;SDS011;53168;51.146;17.120;2023-07-02T12:26:14;2.49;;;2.49;;
66371;SDS011;53168;51.146;17.120;2023-07-02T12:32:08;2.69;;;2.69;;
66371;SDS011;53168;51.146;17.120;2023-07-02T12:37:44;2.56;;;2.56;;
66371;SDS011;53168;51.146;17.120;2023-07-02T12:40:21;2.41;;;2.41;;
66371;SDS011;53168;51.146;17.120;2023-07-02T12:43:01;2.56;;;2.56;;
66371;SDS011;53168;51.146;17.120;2023-07-02T12:45:37;2.77;;;2.77;;
66371;SDS011;53168;51.146;17.120;2023-07-02T12:48:20;3.68;;;3.68;;
66371;SDS011;53168;51.146;17.120;2023-07-02T12:50:53;2.76;;;2.76;;
66371;SDS011;53168;51.146;17.120;2023-07-02T12:53:25;2.88;;;2.88;;
66371;SDS011;53168;51.146;17.120;2023-07-02T12:55:56;2.67;;;2.67;;
66371;SDS011;53168;51.146;17.120;2023-07-02T12:58:29;2.61;;;2.61;;
66371;SDS011;53168;51.146;17.120;2023-07-02T13:00:59;2.83;;;2.83;;
66371;SDS011;53168;51.146;17.120;2023-07-02T13:03:31;3.08;;;3.08;;
66371;SDS011;53168;51.146;17.120;2023-07-02T13:06:07;2.71;;;2.71;;
66371;SDS011;53168;51.146;17.120;2023-07-02T13:08:37;2.92;;;2.92;;
66371;SDS011;53168;51.146;17.120;2023-07-02T13:11:08;2.66;;;2.66;;
66371;SDS011;53168;51.146;17.120;2023-07-02T13:13:38;2.62;;;2.62;;
66371;SDS011;53168;51.146;17.120;2023-07-02T13:16:09;3.12;;;3.12;;
66371;SDS011;53168;51.146;17.120;2023-07-02T13:18:54;3.23;;;3.23;;
66371;SDS011;53168;51.146;17.120;2023-07-02T13:21:27;3.10;;;3.10;;
66371;SDS011;53168;51.146;17.120;2023-07-02T13:23:57;2.66;;;2.66;;
66371;SDS011;53168;51.146;17.120;2023-07-02T13:26:26;2.90;;;2.90;;
66371;SDS011;53168;51.146;17.120;2023-07-02T13:28:56;2.72;;;2.72;;
66371;SDS011;53168;51.146;17.120;2023-07-02T13:31:26;2.55;;;2.55;;
66371;SDS011;53168;51.146;17.120;2023-07-02T13:33:56;2.79;;;2.79;;
66371;SDS011;53168;51.146;17.120;2023-07-02T13:36:26;2.53;;;2.53;;
66371;SDS011;53168;51.146;17.120;2023-07-02T13:38:57;2.68;;;2.68;;
66371;SDS011;53168;51.146;17.120;2023-07-02T13:41:27;2.80;;;2.80;;
66371;SDS011;53168;51.146;17.120;2023-07-02T13:43:58;3.43;;;3.43;;
66371;SDS011;53168;51.146;17.120;2023-07-02T13:46:28;2.95;;;2.95;;
66371;SDS011;53168;51.146;17.120;2023-07-02T13:48:59;2.36;;;2.36;;
66371;SDS011;53168;51.146;17.120;2023-07-02T13:59:30;2.28;;;2.28;;
66371;SDS011;53168;51.146;17.120;2023-07-02T14:02:52;2.62;;;2.62;;
66371;SDS011;53168;51.146;17.120;2023-07-02T14:05:45;2.34;;;2.34;;
66371;SDS011;53168;51.146;17.120;2023-07-02T14:08:44;2.51;;;2.51;;
66371;SDS011;53168;51.146;17.120;2023-07-02T14:15:06;2.41;;;2.41;;
66371;SDS011;53168;51.146;17.120;2023-07-02T14:18:18;2.67;;;2.67;;
66371;SDS011;53168;51.146;17.120;2023-07-02T14:24:20;2.71;;;2.71;;
66371;SDS011;53168;51.146;17.120;2023-07-02T14:27:07;2.47;;;2.47;;
66371;SDS011;53168;51.146;17.120;2023-07-02T14:42:05;2.72;;;2.72;;
66371;SDS011;53168;51.146;17.120;2023-07-02T14:44:50;2.74;;;2.74;;
66371;SDS011;53168;51.146;17.120;2023-07-02T14:47:32;2.42;;;2.42;;
66371;SDS011;53168;51.146;17.120;2023-07-02T14:54:51;2.65;;;2.65;;
66371;SDS011;53168;51.146;17.120;2023-07-02T14:57:56;2.31;;;2.31;;
66371;SDS011;53168;51.146;17.120;2023-07-02T15:17:41;2.62;;;2.62;;
66371;SDS011;53168;51.146;17.120;2023-07-02T15:24:45;2.74;;;2.74;;
66371;SDS011;53168;51.146;17.120;2023-07-02T15:28:12;2.61;;;2.61;;
66371;SDS011;53168;51.146;17.120;2023-07-02T15:35:09;2.56;;;2.56;;
66371;SDS011;53168;51.146;17.120;2023-07-02T15:38:22;2.65;;;2.65;;
66371;SDS011;53168;51.146;17.120;2023-07-02T15:41:50;2.50;;;2.50;;
66371;SDS011;53168;51.146;17.120;2023-07-02T15:45:35;2.79;;;2.79;;
66371;SDS011;53168;51.146;17.120;2023-07-02T15:48:33;2.57;;;2.57;;
66371;SDS011;53168;51.146;17.120;2023-07-02T15:52:02;2.65;;;2.65;;
66371;SDS011;53168;51.146;17.120;2023-07-02T15:55:55;2.51;;;2.51;;
66371;SDS011;53168;51.146;17.120;2023-07-02T16:17:13;2.83;;;2.83;;
66371;SDS011;53168;51.146;17.120;2023-07-02T16:23:53;2.68;;;2.68;;
66371;SDS011;53168;51.146;17.120;2023-07-02T16:41:26;3.41;;;3.41;;
66371;SDS011;53168;51.146;17.120;2023-07-02T16:45:25;3.10;;;3.10;;
66371;SDS011;53168;51.146;17.120;2023-07-02T16:53:00;3.33;;;3.33;;
66371;SDS011;53168;51.146;17.120;2023-07-02T18:02:27;4.64;;;4.59;;
66371;SDS011;53168;51.146;17.120;2023-07-02T18:12:05;4.92;;;4.92;;
66371;SDS011;53168;51.146;17.120;2023-07-02T18:15:57;5.15;;;5.15;;
66371;SDS011;53168;51.146;17.120;2023-07-02T18:22:11;4.93;;;4.93;;
66371;SDS011;53168;51.146;17.120;2023-07-02T18:24:45;4.85;;;4.85;;
66371;SDS011;53168;51.146;17.120;2023-07-02T18:27:21;4.77;;;4.77;;
66371;SDS011;53168;51.146;17.120;2023-07-02T18:29:56;5.89;;;5.89;;
66371;SDS011;53168;51.146;17.120;2023-07-02T20:38:34;8.21;;;8.21;;
66371;SDS011;53168;51.146;17.120;2023-07-02T20:41:13;9.08;;;9.08;;
66371;SDS011;53168;51.146;17.120;2023-07-02T20:50:12;8.97;;;8.97;;
66371;SDS011;53168;51.146;17.120;2023-07-02T20:52:46;8.92;;;8.92;;
66371;SDS011;53168;51.146;17.120;2023-07-02T20:55:18;8.76;;;8.76;;
66371;SDS011;53168;51.146;17.120;2023-07-02T20:57:48;8.27;;;8.26;;
66371;SDS011;53168;51.146;17.120;2023-07-02T21:00:18;8.42;;;8.40;;
66371;SDS011;53168;51.146;17.120;2023-07-02T21:05:44;7.60;;;7.60;;
66371;SDS011;53168;51.146;17.120;2023-07-02T21:08:14;7.92;;;7.92;;
66371;SDS011;53168;51.146;17.120;2023-07-02T21:10:44;8.30;;;8.30;;
66371;SDS011;53168;51.146;17.120;2023-07-02T21:13:13;9.13;;;9.13;;
66371;SDS011;53168;51.146;17.120;2023-07-02T21:15:44;9.11;;;9.11;;
66371;SDS011;53168;51.146;17.120;2023-07-02T21:18:23;8.85;;;8.85;;
66371;SDS011;53168;51.146;17.120;2023-07-02T21:23:41;10.44;;;10.44;;
66371;SDS011;53168;51.146;17.120;2023-07-02T21:26:11;9.89;;;9.89;;
66371;SDS011;53168;51.146;17.120;2023-07-02T21:28:46;10.08;;;10.06;;
66371;SDS011;53168;51.146;17.120;2023-07-02T21:31:20;10.02;;;10.02;;
66371;SDS011;53168;51.146;17.120;2023-07-02T22:05:11;10.47;;;10.47;;
66371;SDS011;53168;51.146;17.120;2023-07-02T22:07:46;11.05;;;11.05;;
66371;SDS011;53168;51.146;17.120;2023-07-02T22:10:20;10.75;;;10.75;;
66371;SDS011;53168;51.146;17.120;2023-07-02T22:13:02;10.66;;;10.66;;
66371;SDS011;53168;51.146;17.120;2023-07-02T22:16:04;9.62;;;9.62;;
66371;SDS011;53168;51.146;17.120;2023-07-02T22:18:57;10.61;;;10.57;;
66371;SDS011;53168;51.146;17.120;2023-07-02T22:21:33;10.46;;;10.46;;
66371;SDS011;53168;51.146;17.120;2023-07-02T22:24:13;9.84;;;9.84;;
66371;SDS011;53168;51.146;17.120;2023-07-02T22:26:49;10.11;;;10.11;;
66371;SDS011;53168;51.146;17.120;2023-07-02T22:29:32;9.95;;;9.95;;
66371;SDS011;53168;51.146;17.120;2023-07-02T22:32:37;9.18;;;9.17;;
66371;SDS011;53168;51.146;17.120;2023-07-02T22:35:12;10.18;;;10.18;;
66371;SDS011;53168;51.146;17.120;2023-07-02T22:37:46;10.69;;;10.58;;
66371;SDS011;53168;51.146;17.120;2023-07-02T22:40:24;10.27;;;10.17;;
66371;SDS011;53168;51.146;17.120;2023-07-02T22:42:59;9.86;;;9.83;;
66371;SDS011;53168;51.146;17.120;2023-07-02T22:45:32;9.27;;;9.27;;
66371;SDS011;53168;51.146;17.120;2023-07-02T22:48:12;9.43;;;9.43;;
66371;SDS011;53168;51.146;17.120;2023-07-02T22:50:46;10.19;;;10.19;;
66371;SDS011;53168;51.146;17.120;2023-07-02T22:53:27;10.35;;;10.35;;
66371;SDS011;53168;51.146;17.120;2023-07-02T22:56:43;10.12;;;10.08;;
66371;SDS011;53168;51.146;17.120;2023-07-02T22:59:22;9.05;;;9.05;;
66371;SDS011;53168;51.146;17.120;2023-07-02T23:01:57;9.16;;;9.16;;
66371;SDS011;53168;51.146;17.120;2023-07-02T23:04:31;10.28;;;10.28;;
66371;SDS011;53168;51.146;17.120;2023-07-02T23:07:05;10.49;;;10.49;;
66371;SDS011;53168;51.146;17.120;2023-07-02T23:09:39;10.98;;;10.98;;
66371;SDS011;53168;51.146;17.120;2023-07-02T23:12:14;10.43;;;10.42;;
66371;SDS011;53168;51.146;17.120;2023-07-02T23:14:48;10.22;;;10.20;;
66371;SDS011;53168;51.146;17.120;2023-07-02T23:17:23;10.49;;;10.49;;
66371;SDS011;53168;51.146;17.120;2023-07-02T23:19:56;9.97;;;9.97;;
66371;SDS011;53168;51.146;17.120;2023-07-02T23:22:30;10.59;;;10.58;;
66371;SDS011;53168;51.146;17.120;2023-07-02T23:25:09;10.25;;;10.18;;
66371;SDS011;53168;51.146;17.120;2023-07-02T23:27:48;10.23;;;10.23;;
66371;SDS011;53168;51.146;17.120;2023-07-02T23:30:33;11.47;;;11.47;;
66371;SDS011;53168;51.146;17.120;2023-07-02T23:33:08;10.45;;;10.43;;
66371;SDS011;53168;51.146;17.120;2023-07-02T23:35:42;9.65;;;9.62;;
66371;SDS011;53168;51.146;17.120;2023-07-02T23:38:16;9.22;;;9.21;;
66371;SDS011;53168;51.146;17.120;2023-07-02T23:40:49;10.10;;;10.10;;
66371;SDS011;53168;51.146;17.120;2023-07-02T23:43:24;10.27;;;10.27;;
66371;SDS011;53168;51.146;17.120;2023-07-02T23:45:58;9.96;;;9.96;;
66371;SDS011;53168;51.146;17.120;2023-07-02T23:48:31;8.88;;;8.80;;
66371;SDS011;53168;51.146;17.120;2023-07-02T23:51:05;9.55;;;9.49;;
66371;SDS011;53168;51.146;17.120;2023-07-02T23:53:39;9.43;;;9.43;;
66371;SDS011;53168;51.146;17.120;2023-07-02T23:56:12;9.93;;;9.93;;
66371;SDS011;53168;51.146;17.120;2023-07-02T23:58:46;9.43;;;9.42;;
